createdAt,value
2023-03-06T00:01:10.968Z,7.05
2023-03-06T00:03:37.501Z,7.09
2023-03-06T00:06:04.076Z,7.09
2023-03-06T00:08:30.547Z,7.00
2023-03-06T00:10:56.958Z,7.04
2023-03-06T00:13:23.385Z,7.03
2023-03-06T00:15:49.989Z,7.07
2023-03-06T00:18:16.457Z,7.08
2023-03-06T00:20:42.910Z,7.07
2023-03-06T00:23:09.327Z,7.09
2023-03-06T00:25:35.712Z,7.08
2023-03-06T00:28:02.161Z,7.01
2023-03-06T00:30:28.749Z,7.03
2023-03-06T00:32:55.213Z,7.03
2023-03-06T00:35:21.702Z,7.00
2023-03-06T00:37:48.125Z,7.00
2023-03-06T00:40:14.541Z,6.98
2023-03-06T00:42:40.986Z,6.96
2023-03-06T00:45:07.428Z,6.95
2023-03-06T00:47:33.918Z,6.94
2023-03-06T00:50:00.433Z,6.94
2023-03-06T00:52:26.886Z,6.92
2023-03-06T00:54:53.332Z,6.91
2023-03-06T00:57:19.957Z,6.88
2023-03-06T00:59:49.323Z,6.84
2023-03-06T01:02:15.838Z,6.78
2023-03-06T01:04:42.235Z,6.68
2023-03-06T01:07:08.709Z,6.73
2023-03-06T01:09:35.110Z,6.76
2023-03-06T01:12:01.548Z,6.47
2023-03-06T01:14:27.961Z,6.51
2023-03-06T01:16:54.403Z,6.59
2023-03-06T01:19:20.816Z,6.58
2023-03-06T01:21:47.275Z,6.64
2023-03-06T01:24:13.738Z,6.69
2023-03-06T01:26:40.200Z,6.71
2023-03-06T01:29:06.625Z,6.69
2023-03-06T01:31:33.163Z,6.69
2023-03-06T01:33:59.730Z,6.72
2023-03-06T01:36:26.198Z,6.75
2023-03-06T01:38:52.687Z,6.74
2023-03-06T01:41:19.154Z,6.73
2023-03-06T01:43:45.597Z,6.63
2023-03-06T01:46:12.070Z,6.57
2023-03-06T01:48:38.470Z,6.63
2023-03-06T01:51:04.845Z,6.65
2023-03-06T01:53:31.240Z,6.59
2023-03-06T01:55:57.686Z,6.60
2023-03-06T01:58:24.131Z,6.64
2023-03-06T02:00:50.553Z,6.64
2023-03-06T02:03:17.009Z,6.58
2023-03-06T02:05:43.404Z,6.58
2023-03-06T02:08:09.773Z,6.61
2023-03-06T02:10:36.202Z,6.64
2023-03-06T02:13:02.671Z,6.64
2023-03-06T02:15:29.106Z,6.66
2023-03-06T02:17:55.588Z,6.70
2023-03-06T02:20:22.018Z,6.72
2023-03-06T02:22:48.664Z,6.74
2023-03-06T02:25:15.180Z,6.71
2023-03-06T02:27:41.656Z,6.65
2023-03-06T02:30:08.159Z,6.61
2023-03-06T02:32:34.634Z,6.62
2023-03-06T02:35:01.141Z,6.62
2023-03-06T02:37:27.573Z,6.61
2023-03-06T02:39:54.024Z,6.60
2023-03-06T02:42:20.468Z,6.58
2023-03-06T02:44:46.924Z,6.55
2023-03-06T02:47:13.296Z,6.56
2023-03-06T02:49:39.721Z,6.60
2023-03-06T02:52:06.107Z,6.56
2023-03-06T02:54:32.537Z,6.49
2023-03-06T02:56:59.162Z,6.50
2023-03-06T02:59:25.575Z,6.48
2023-03-06T03:01:52.037Z,6.47
2023-03-06T03:04:18.527Z,6.47
2023-03-06T03:06:45.038Z,6.46
2023-03-06T03:09:11.413Z,6.45
2023-03-06T03:11:37.965Z,6.43
2023-03-06T03:14:04.390Z,6.38
2023-03-06T03:16:30.819Z,6.39
2023-03-06T03:18:57.266Z,6.39
2023-03-06T03:21:23.833Z,6.38
2023-03-06T03:23:50.320Z,6.39
2023-03-06T03:26:16.769Z,6.36
2023-03-06T03:28:43.227Z,6.37
2023-03-06T03:31:09.744Z,6.12
2023-03-06T03:33:36.479Z,6.13
2023-03-06T03:36:02.977Z,6.14
2023-03-06T03:38:29.421Z,5.93
2023-03-06T03:40:55.879Z,6.07
2023-03-06T03:43:22.320Z,6.14
2023-03-06T03:45:50.322Z,6.18
2023-03-06T03:48:16.744Z,6.21
2023-03-06T03:50:43.186Z,6.25
2023-03-06T03:53:09.681Z,6.27
2023-03-06T03:55:36.081Z,6.29
2023-03-06T03:58:02.511Z,6.26
2023-03-06T04:00:28.946Z,6.27
2023-03-06T04:02:55.365Z,6.28
2023-03-06T04:05:21.773Z,6.28
2023-03-06T04:07:48.123Z,6.28
2023-03-06T04:10:14.585Z,6.24
2023-03-06T04:12:41.016Z,6.21
2023-03-06T04:15:07.487Z,6.22
2023-03-06T04:17:33.991Z,6.24
2023-03-06T04:20:00.438Z,6.23
2023-03-06T04:22:26.867Z,6.12
2023-03-06T04:24:53.393Z,6.13
2023-03-06T04:27:20.021Z,6.18
2023-03-06T04:29:46.522Z,6.20
2023-03-06T04:32:13.018Z,6.20
2023-03-06T04:34:39.584Z,6.22
2023-03-06T04:37:06.018Z,6.20
2023-03-06T04:39:32.473Z,6.21
2023-03-06T04:41:58.936Z,6.23
2023-03-06T04:44:25.507Z,6.25
2023-03-06T04:46:51.949Z,6.22
2023-03-06T04:49:18.374Z,6.19
2023-03-06T04:51:44.779Z,6.16
2023-03-06T04:54:11.229Z,6.12
2023-03-06T04:56:37.754Z,6.14
2023-03-06T04:59:04.284Z,6.14
2023-03-06T05:01:30.665Z,6.13
2023-03-06T05:03:57.127Z,6.12
2023-03-06T05:06:25.691Z,6.04
2023-03-06T05:08:52.110Z,6.06
2023-03-06T05:11:18.549Z,6.07
2023-03-06T05:13:44.930Z,6.04
2023-03-06T05:16:11.434Z,5.98
2023-03-06T05:18:37.907Z,5.96
2023-03-06T05:21:04.347Z,5.97
2023-03-06T05:23:30.708Z,5.93
2023-03-06T05:25:57.141Z,5.93
2023-03-06T05:28:23.573Z,5.93
2023-03-06T05:30:50.107Z,5.88
2023-03-06T05:33:16.613Z,5.91
2023-03-06T05:35:43.066Z,5.87
2023-03-06T05:38:09.828Z,5.85
2023-03-06T05:40:36.644Z,5.88
2023-03-06T05:43:03.083Z,5.85
2023-03-06T05:45:29.540Z,5.84
2023-03-06T05:47:55.960Z,5.84
2023-03-06T05:50:22.388Z,5.70
2023-03-06T05:52:48.820Z,5.76
2023-03-06T05:55:15.230Z,5.78
2023-03-06T05:57:41.856Z,5.61
2023-03-06T06:00:08.265Z,5.62
2023-03-06T06:02:34.745Z,5.72
2023-03-06T06:05:01.220Z,5.78
2023-03-06T06:07:27.716Z,5.84
2023-03-06T06:09:54.177Z,5.84
2023-03-06T06:12:20.589Z,5.85
2023-03-06T06:14:46.958Z,5.87
2023-03-06T06:17:13.406Z,5.89
2023-03-06T06:19:39.876Z,5.90
2023-03-06T06:22:06.470Z,5.93
2023-03-06T06:24:32.951Z,5.92
2023-03-06T06:27:00.950Z,5.91
2023-03-06T06:29:29.029Z,5.91
2023-03-06T06:31:55.403Z,5.90
2023-03-06T06:34:21.766Z,5.93
2023-03-06T06:36:48.277Z,5.89
2023-03-06T06:39:14.847Z,5.94
2023-03-06T06:41:59.450Z,5.89
2023-03-06T06:44:27.681Z,5.99
2023-03-06T06:49:40.462Z,6.04
2023-03-06T06:52:06.911Z,6.06
2023-03-06T06:54:33.401Z,6.02
2023-03-06T06:56:59.924Z,6.03
2023-03-06T06:59:26.518Z,6.05
2023-03-06T07:01:53.164Z,6.08
2023-03-06T07:04:19.748Z,5.99
2023-03-06T07:06:46.278Z,5.97
2023-03-06T07:09:12.757Z,6.03
2023-03-06T07:11:39.168Z,6.08
2023-03-06T07:14:05.654Z,6.11
2023-03-06T07:16:32.316Z,6.13
2023-03-06T07:18:58.763Z,6.16
2023-03-06T07:21:25.234Z,6.13
2023-03-06T07:23:51.764Z,6.14
2023-03-06T07:26:18.219Z,6.19
2023-03-06T07:28:52.280Z,6.22
2023-03-06T07:31:19.261Z,6.27
2023-03-06T07:33:45.751Z,6.29
2023-03-06T07:36:13.788Z,6.29
2023-03-06T07:38:40.509Z,6.35
2023-03-06T07:41:10.091Z,6.39
2023-03-06T07:43:36.617Z,6.41
2023-03-06T07:46:03.060Z,6.29
2023-03-06T07:48:29.570Z,6.23
2023-03-06T07:50:56.011Z,6.25
2023-03-06T07:53:22.395Z,6.40
2023-03-06T07:55:48.973Z,6.55
2023-03-06T07:58:15.455Z,6.59
2023-03-06T08:00:41.871Z,6.61
2023-03-06T08:03:08.383Z,6.63
2023-03-06T08:05:34.841Z,6.66
2023-03-06T08:08:01.212Z,6.73
2023-03-06T08:10:27.584Z,6.77
2023-03-06T08:12:53.975Z,6.61
2023-03-06T08:15:20.346Z,6.60
2023-03-06T08:17:46.744Z,6.68
2023-03-06T08:20:13.196Z,6.66
2023-03-06T08:22:39.737Z,6.65
2023-03-06T08:25:06.175Z,6.61
2023-03-06T08:27:32.712Z,6.57
2023-03-06T08:29:59.116Z,6.55
2023-03-06T08:35:05.792Z,6.52
2023-03-06T08:37:34.497Z,6.53
2023-03-06T08:40:01.006Z,6.47
2023-03-06T08:42:27.499Z,6.37
2023-03-06T08:44:53.910Z,6.40
2023-03-06T08:47:20.290Z,6.43
2023-03-06T08:49:46.781Z,6.47
2023-03-06T08:52:13.197Z,6.53
2023-03-06T08:54:39.556Z,6.55
2023-03-06T08:57:06.100Z,6.61
2023-03-06T08:59:32.607Z,6.60
2023-03-06T09:01:59.072Z,6.57
2023-03-06T09:04:25.538Z,6.53
2023-03-06T09:06:53.134Z,6.57
2023-03-06T09:09:22.425Z,6.58
2023-03-06T09:11:48.830Z,6.62
2023-03-06T09:14:15.348Z,6.67
2023-03-06T09:16:41.797Z,6.72
2023-03-06T09:19:08.297Z,6.77
2023-03-06T09:21:34.768Z,6.81
2023-03-06T09:24:01.211Z,6.83
2023-03-06T09:26:39.645Z,6.79
2023-03-06T09:29:11.248Z,6.84
2023-03-06T09:31:37.736Z,6.83
2023-03-06T09:34:05.092Z,6.89
2023-03-06T09:36:31.516Z,6.89
2023-03-06T09:38:57.908Z,6.96
2023-03-06T09:41:24.403Z,7.00
2023-03-06T09:43:50.848Z,7.00
2023-03-06T09:46:17.263Z,6.99
2023-03-06T09:48:43.630Z,6.98
2023-03-06T09:51:10.021Z,6.96
2023-03-06T09:53:36.396Z,7.03
2023-03-06T09:56:02.760Z,7.07
2023-03-06T09:58:29.204Z,7.04
2023-03-06T10:00:55.584Z,7.09
2023-03-06T10:03:21.976Z,7.11
2023-03-06T10:05:48.392Z,7.03
2023-03-06T10:08:14.820Z,7.09
2023-03-06T10:10:41.188Z,7.07
2023-03-06T10:13:07.613Z,7.05
2023-03-06T10:15:34.181Z,7.09
2023-03-06T10:18:00.654Z,7.13
2023-03-06T10:20:27.089Z,7.16
2023-03-06T10:23:01.063Z,7.18
2023-03-06T10:25:30.544Z,7.16
2023-03-06T10:27:56.964Z,7.14
2023-03-06T10:30:23.425Z,7.19
2023-03-06T10:32:50.115Z,7.18
2023-03-06T10:35:16.537Z,7.20
2023-03-06T10:37:42.887Z,7.16
2023-03-06T10:40:09.476Z,7.11
2023-03-06T10:42:35.898Z,7.21
2023-03-06T10:45:02.512Z,7.22
2023-03-06T10:47:29.026Z,7.21
2023-03-06T10:49:55.468Z,7.29
2023-03-06T10:52:23.969Z,7.34
2023-03-06T10:54:50.389Z,7.31
2023-03-06T10:57:16.857Z,7.33
2023-03-06T10:59:43.278Z,7.34
2023-03-06T11:02:09.723Z,7.35
2023-03-06T11:04:36.395Z,7.38
2023-03-06T11:07:02.838Z,7.41
2023-03-06T11:09:29.215Z,7.38
2023-03-06T11:11:55.630Z,7.47
2023-03-06T11:14:22.007Z,7.48
2023-03-06T11:16:48.444Z,7.43
2023-03-06T11:19:14.802Z,7.45
2023-03-06T11:21:41.239Z,7.48
2023-03-06T11:24:07.728Z,7.55
2023-03-06T11:26:34.112Z,7.58
2023-03-06T11:29:00.614Z,7.55
2023-03-06T11:31:27.017Z,7.50
2023-03-06T11:33:53.614Z,7.57
2023-03-06T11:36:20.046Z,7.52
2023-03-06T11:38:46.396Z,7.61
2023-03-06T11:41:12.863Z,7.59
2023-03-06T11:43:39.234Z,7.62
2023-03-06T11:46:05.612Z,7.66
2023-03-06T11:48:32.081Z,7.72
2023-03-06T11:50:58.537Z,7.75
2023-03-06T11:53:24.917Z,7.77
2023-03-06T11:55:51.387Z,7.73
2023-03-06T11:58:17.746Z,7.80
2023-03-06T12:00:44.148Z,7.78
2023-03-06T12:03:10.528Z,7.82
2023-03-06T12:05:36.978Z,7.87
2023-03-06T12:08:03.512Z,7.78
2023-03-06T12:10:29.920Z,7.85
2023-03-06T12:12:57.487Z,7.83
2023-03-06T12:15:23.920Z,7.91
2023-03-06T12:17:50.332Z,7.97
2023-03-06T12:20:16.773Z,8.03
2023-03-06T12:22:44.364Z,8.04
2023-03-06T12:25:12.789Z,8.01
2023-03-06T12:27:39.168Z,8.20
2023-03-06T12:30:05.595Z,8.24
2023-03-06T12:32:32.039Z,8.10
2023-03-06T12:34:58.544Z,8.12
2023-03-06T12:37:24.964Z,8.15
2023-03-06T12:39:51.341Z,8.24
2023-03-06T12:42:23.086Z,8.27
2023-03-06T12:44:50.056Z,8.29
2023-03-06T12:47:16.480Z,8.20
2023-03-06T12:49:42.894Z,8.24
2023-03-06T12:52:09.828Z,8.31
2023-03-06T12:54:36.301Z,8.37
2023-03-06T12:57:02.745Z,8.42
2023-03-06T12:59:29.137Z,8.38
2023-03-06T13:01:55.562Z,8.38
2023-03-06T13:04:22.096Z,8.41
2023-03-06T13:06:50.719Z,8.51
2023-03-06T13:09:17.702Z,8.59
2023-03-06T13:11:44.119Z,8.60
2023-03-06T13:14:10.497Z,8.73
2023-03-06T13:16:36.926Z,8.70
2023-03-06T13:19:03.439Z,8.74
2023-03-06T13:21:29.893Z,8.80
2023-03-06T13:23:56.292Z,8.85
2023-03-06T13:26:22.704Z,8.85
2023-03-06T13:28:49.155Z,8.79
2023-03-06T13:31:27.031Z,8.71
2023-03-06T13:33:54.035Z,8.74
2023-03-06T13:36:20.383Z,8.85
2023-03-06T13:38:46.742Z,8.90
2023-03-06T13:41:13.204Z,9.04
2023-03-06T13:43:39.638Z,8.85
2023-03-06T13:46:06.074Z,8.98
2023-03-06T13:48:47.819Z,9.01
2023-03-06T13:51:14.316Z,9.10
2023-03-06T13:53:40.789Z,9.28
2023-03-06T13:56:07.311Z,9.38
2023-03-06T13:58:33.699Z,9.31
2023-03-06T14:01:00.072Z,9.34
2023-03-06T14:03:26.498Z,9.20
2023-03-06T14:05:52.864Z,9.01
2023-03-06T14:08:19.302Z,8.92
2023-03-06T14:10:45.730Z,8.98
2023-03-06T14:13:12.142Z,9.10
2023-03-06T14:15:38.591Z,9.16
2023-03-06T14:18:04.969Z,9.36
2023-03-06T14:20:31.409Z,9.55
2023-03-06T14:22:57.750Z,9.54
2023-03-06T14:25:24.108Z,9.63
2023-03-06T14:27:50.530Z,9.63
2023-03-06T14:30:16.946Z,9.73
2023-03-06T14:32:43.428Z,9.81
2023-03-06T14:35:09.881Z,9.81
2023-03-06T14:37:36.294Z,9.85
2023-03-06T14:40:02.662Z,9.81
2023-03-06T14:42:29.031Z,9.88
2023-03-06T14:44:55.507Z,9.90
2023-03-06T14:47:22.103Z,9.97
2023-03-06T14:49:48.553Z,10.11
2023-03-06T14:52:15.029Z,10.10
2023-03-06T14:54:41.428Z,10.18
2023-03-06T14:57:07.858Z,10.11
2023-03-06T14:59:34.385Z,9.97
2023-03-06T15:02:00.835Z,10.18
2023-03-06T15:04:27.322Z,10.12
2023-03-06T15:06:53.737Z,10.27
2023-03-06T15:09:20.118Z,10.16
2023-03-06T15:11:46.552Z,10.18
2023-03-06T15:14:12.972Z,10.13
2023-03-06T15:16:39.329Z,10.20
2023-03-06T15:19:05.732Z,10.31
2023-03-06T15:21:32.078Z,10.19
2023-03-06T15:23:58.551Z,10.28
2023-03-06T15:26:24.961Z,10.29
2023-03-06T15:28:54.284Z,10.36
2023-03-06T15:31:23.188Z,10.42
2023-03-06T15:33:49.538Z,10.36
2023-03-06T15:36:15.908Z,10.36
2023-03-06T15:38:42.292Z,10.37
2023-03-06T15:41:08.647Z,10.58
2023-03-06T15:43:35.024Z,10.49
2023-03-06T15:46:01.435Z,10.41
2023-03-06T15:48:27.785Z,10.62
2023-03-06T15:50:54.184Z,10.76
2023-03-06T15:53:20.722Z,10.72
2023-03-06T15:55:47.236Z,10.68
2023-03-06T15:58:13.642Z,10.89
2023-03-06T16:00:40.063Z,10.86
2023-03-06T16:03:06.498Z,10.75
2023-03-06T16:05:32.854Z,10.74
2023-03-06T16:07:59.276Z,10.67
2023-03-06T16:10:25.749Z,10.97
2023-03-06T16:12:52.158Z,10.94
2023-03-06T16:15:18.519Z,11.07
2023-03-06T16:17:44.945Z,11.16
2023-03-06T16:20:11.398Z,11.13
2023-03-06T16:22:37.776Z,11.07
2023-03-06T16:25:04.300Z,10.98
2023-03-06T16:27:30.693Z,11.10
2023-03-06T16:29:57.030Z,11.16
2023-03-06T16:32:23.490Z,11.85
2023-03-06T16:34:49.962Z,13.20
2023-03-06T16:37:16.354Z,14.21
2023-03-06T16:39:42.744Z,14.71
2023-03-06T16:42:09.092Z,15.25
2023-03-06T16:44:35.501Z,15.50
2023-03-06T16:47:01.947Z,15.39
2023-03-06T16:49:28.315Z,15.60
2023-03-06T16:51:54.678Z,15.84
2023-03-06T16:54:21.049Z,16.07
2023-03-06T16:56:47.464Z,16.08
2023-03-06T16:59:14.028Z,15.38
2023-03-06T17:01:40.460Z,14.96
2023-03-06T17:04:06.885Z,14.62
2023-03-06T17:06:33.320Z,14.08
2023-03-06T17:08:59.684Z,13.49
2023-03-06T17:11:26.088Z,12.90
2023-03-06T17:13:52.409Z,12.40
2023-03-06T17:16:18.844Z,12.13
2023-03-06T17:18:45.341Z,11.93
2023-03-06T17:21:11.716Z,11.73
2023-03-06T17:23:38.067Z,11.56
2023-03-06T17:26:04.459Z,11.39
2023-03-06T17:28:30.803Z,11.33
2023-03-06T17:30:57.221Z,11.17
2023-03-06T17:33:23.602Z,10.87
2023-03-06T17:35:50.147Z,11.02
2023-03-06T17:38:16.528Z,10.88
2023-03-06T17:40:42.904Z,10.99
2023-03-06T17:43:09.388Z,10.77
2023-03-06T17:45:35.862Z,10.89
2023-03-06T17:48:02.215Z,10.88
2023-03-06T17:50:28.645Z,10.70
2023-03-06T17:52:55.174Z,10.73
2023-03-06T17:55:21.557Z,10.60
2023-03-06T17:57:48.030Z,10.46
2023-03-06T18:00:14.491Z,10.57
2023-03-06T18:02:40.924Z,10.54
2023-03-06T18:05:07.403Z,10.49
2023-03-06T18:07:33.834Z,10.49
2023-03-06T18:10:00.228Z,10.47
2023-03-06T18:12:26.637Z,10.40
2023-03-06T18:14:53.045Z,10.57
2023-03-06T18:17:19.580Z,10.67
2023-03-06T18:19:45.935Z,10.42
2023-03-06T18:22:12.331Z,10.53
2023-03-06T18:24:38.686Z,10.53
2023-03-06T18:27:05.117Z,10.27
2023-03-06T18:29:31.577Z,10.33
2023-03-06T18:31:58.042Z,10.15
2023-03-06T18:34:24.487Z,10.16
2023-03-06T18:36:50.861Z,10.25
2023-03-06T18:39:17.286Z,10.26
2023-03-06T18:41:43.733Z,10.25
2023-03-06T18:44:10.161Z,10.26
2023-03-06T18:46:36.530Z,10.32
2023-03-06T18:49:02.923Z,10.21
2023-03-06T18:51:29.344Z,10.17
2023-03-06T18:53:55.678Z,10.19
2023-03-06T18:56:22.083Z,10.16
2023-03-06T18:58:48.639Z,10.11
2023-03-06T19:01:15.155Z,10.00
2023-03-06T19:03:41.580Z,9.96
2023-03-06T19:06:07.994Z,9.89
2023-03-06T19:08:34.435Z,9.95
2023-03-06T19:11:00.868Z,9.85
2023-03-06T19:13:27.250Z,9.86
2023-03-06T19:15:53.591Z,9.82
2023-03-06T19:18:20.007Z,9.72
2023-03-06T19:20:46.459Z,9.76
2023-03-06T19:23:12.848Z,9.78
2023-03-06T19:25:39.303Z,9.69
2023-03-06T19:28:05.747Z,9.48
2023-03-06T19:30:32.466Z,9.63
2023-03-06T19:32:58.904Z,9.62
2023-03-06T19:35:25.294Z,9.63
2023-03-06T19:37:51.782Z,9.61
2023-03-06T19:40:18.240Z,9.61
2023-03-06T19:42:44.654Z,9.53
2023-03-06T19:45:11.104Z,9.50
2023-03-06T19:47:37.606Z,9.48
2023-03-06T19:50:04.013Z,9.47
2023-03-06T19:52:30.417Z,9.41
2023-03-06T19:54:56.955Z,9.38
2023-03-06T19:57:23.353Z,9.37
2023-03-06T19:59:49.847Z,9.30
2023-03-06T20:02:16.265Z,9.24
2023-03-06T20:04:42.706Z,9.18
2023-03-06T20:07:09.138Z,9.12
2023-03-06T20:09:35.578Z,9.11
2023-03-06T20:12:01.916Z,9.08
2023-03-06T20:14:28.350Z,9.07
2023-03-06T20:16:54.913Z,9.02
2023-03-06T20:19:21.412Z,9.00
2023-03-06T20:21:47.772Z,9.00
2023-03-06T20:24:14.101Z,8.96
2023-03-06T20:26:40.455Z,8.87
2023-03-06T20:29:07.019Z,8.85
2023-03-06T20:31:33.484Z,8.91
2023-03-06T20:33:59.934Z,8.91
2023-03-06T20:36:26.327Z,8.91
2023-03-06T20:38:52.737Z,8.89
2023-03-06T20:41:19.225Z,8.91
2023-03-06T20:43:45.586Z,8.95
2023-03-06T20:46:12.035Z,8.92
2023-03-06T20:48:38.552Z,8.87
2023-03-06T20:51:06.407Z,8.81
2023-03-06T20:53:32.745Z,8.77
2023-03-06T20:55:59.291Z,8.79
2023-03-06T20:58:25.846Z,8.77
2023-03-06T21:00:52.213Z,8.72
2023-03-06T21:03:18.600Z,8.66
2023-03-06T21:05:45.009Z,8.61
2023-03-06T21:08:11.396Z,8.57
2023-03-06T21:10:37.802Z,8.54
2023-03-06T21:13:04.227Z,8.57
2023-03-06T21:15:30.587Z,8.61
2023-03-06T21:17:56.953Z,8.61
2023-03-06T21:20:23.415Z,8.58
2023-03-06T21:22:49.790Z,8.54
2023-03-06T21:25:16.190Z,8.56
2023-03-06T21:27:42.669Z,8.50
2023-03-06T21:30:09.096Z,8.50
2023-03-06T21:32:35.592Z,8.45
2023-03-06T21:35:04.732Z,8.48
2023-03-06T21:37:31.135Z,8.47
2023-03-06T21:39:57.557Z,8.45
2023-03-06T21:42:26.647Z,8.41
2023-03-06T21:44:53.187Z,8.42
2023-03-06T21:47:19.658Z,8.43
2023-03-06T21:49:49.037Z,8.39
2023-03-06T21:52:15.411Z,8.36
2023-03-06T21:54:41.776Z,8.34
2023-03-06T21:57:08.314Z,8.35
2023-03-06T21:59:34.665Z,8.32
2023-03-06T22:02:01.076Z,8.36
2023-03-06T22:04:27.445Z,8.31
2023-03-06T22:06:53.850Z,8.28
2023-03-06T22:09:20.196Z,8.21
2023-03-06T22:11:46.559Z,8.24
2023-03-06T22:14:13.102Z,8.26
2023-03-06T22:16:39.511Z,8.26
2023-03-06T22:19:05.879Z,8.23
2023-03-06T22:21:32.236Z,8.18
2023-03-06T22:23:58.668Z,8.11
2023-03-06T22:26:25.074Z,8.09
2023-03-06T22:28:51.450Z,8.10
2023-03-06T22:31:17.900Z,8.05
2023-03-06T22:33:44.402Z,8.08
2023-03-06T22:36:10.792Z,8.05
2023-03-06T22:38:37.190Z,8.07
2023-03-06T22:41:03.600Z,8.08
2023-03-06T22:43:29.956Z,8.05
2023-03-06T22:45:56.366Z,7.99
2023-03-06T22:48:22.761Z,7.99
2023-03-06T22:50:49.123Z,8.00
2023-03-06T22:53:15.462Z,7.95
2023-03-06T22:55:41.809Z,7.91
2023-03-06T22:58:10.300Z,7.92
2023-03-06T23:00:36.668Z,7.93
2023-03-06T23:03:03.158Z,7.95
2023-03-06T23:05:29.632Z,7.97
2023-03-06T23:07:55.974Z,7.95
2023-03-06T23:10:22.345Z,7.93
2023-03-06T23:12:48.697Z,7.94
2023-03-06T23:15:15.074Z,7.91
2023-03-06T23:17:41.402Z,7.93
2023-03-06T23:20:07.734Z,7.91
2023-03-06T23:22:34.115Z,7.92
2023-03-06T23:25:00.485Z,7.91
2023-03-06T23:27:26.888Z,7.92
2023-03-06T23:29:55.519Z,7.88
2023-03-06T23:32:21.963Z,7.89
2023-03-06T23:34:48.440Z,7.90
2023-03-06T23:37:14.866Z,7.90
2023-03-06T23:39:41.241Z,7.88
2023-03-06T23:42:07.585Z,7.91
2023-03-06T23:44:34.195Z,7.91
2023-03-06T23:47:00.610Z,7.89
2023-03-06T23:49:26.957Z,7.80
2023-03-06T23:51:53.312Z,7.79
2023-03-06T23:54:19.700Z,7.89
2023-03-06T23:56:46.044Z,7.93
2023-03-06T23:59:12.456Z,7.82
